Portada
METAR-TAF:

METAR-TAF

Aeropuertos :

Yasuj, Irán

latitud: 30-41-49N, longitud: 051-33E, altitud: 1825 m

Observación

El informe se hizo hace 23 minutos, a las 00:00 UTC
Viento calma
Temperatura -6°C
Humedad 79%
Presión 1020 hPa
Visibilidad 10 km o más
sin nubes por debajo de 1500 m y sin presencia de cumulonimbus.

METAR: OISY 250000Z 00000KT CAVOK M06/M09 Q1020

Hora: 03:53 (00:23 UTC)


TAF: falta

Observaciones y pronósticos meteorológicos de más de 4000 aeropuertos (mensajes METAR y TAF).

Los puntos amarillos y rojos representan las estaciones disponibles.

Ponga el ratón en el punto deseado para ver el nombre de la estación.

Haga clic para ver las observaciones y los pronósticos meteorológicos.

Para cambiar el mapa : haga clic en los botones verdes con una cruz de color negro para hacer un zoom, en el botón verde con un guión para alejar o en las flechas verdes para mapas adyacentes.


METAR-TAF: